Time;durP1;ratioP1;P1;durP2;ratioP2;P2;SDS_P1;SDS_P2;PMS_P1;PMS_P2;Temp;Humidity;BMP_temperature;BMP_pressure;BME280_temperature;BME280_humidity;BME280_pressure;Samples;Min_cycle;Max_cycle;Signal;HPM_P1;HPM_P2
2021/11/04 00:03:21;;;;;;;1.20;0.70;;;;;;;;;;10613970;27;20053;-72
2021/11/04 00:08:25;;;;;;;1.63;0.70;;;;;;;;;;10608072;27;20066;-74
2021/11/04 00:13:29;;;;;;;0.95;0.70;;;;;;;;;;10593665;27;20039;-74
2021/11/04 00:18:32;;;;;;;0.98;0.65;;;;;;;;;;10608782;27;20491;-73
2021/11/04 00:23:37;;;;;;;0.20;0.20;;;;;;;;;;10608685;27;20031;-76
2021/11/04 00:28:40;;;;;;;2.75;0.90;;;;;;;;;;10594438;27;20137;-75
2021/11/04 00:33:43;;;;;;;2.23;0.87;;;;;;;;;;10591730;27;20086;-74
2021/11/04 00:38:48;;;;;;;0.55;0.25;;;;;;;;;;10606941;27;20158;-75
2021/11/04 00:43:51;;;;;;;1.50;0.90;;;;;;;;;;10608611;27;20039;-74
2021/11/04 00:48:54;;;;;;;2.20;1.30;;;;;;;;;;10605024;27;20205;-75
2021/11/04 00:53:58;;;;;;;1.98;0.98;;;;;;;;;;10579714;27;20051;-74
2021/11/04 00:59:01;;;;;;;1.75;1.10;;;;;;;;;;10606304;27;20093;-74
2021/11/04 01:04:04;;;;;;;2.63;1.00;;;;;;;;;;10582304;27;20047;-75
2021/11/04 01:09:08;;;;;;;2.10;1.30;;;;;;;;;;10586330;27;20059;-74
2021/11/04 01:14:11;;;;;;;0.65;0.57;;;;;;;;;;10602907;27;20505;-74
2021/11/04 01:19:15;;;;;;;0.98;0.85;;;;;;;;;;10604530;27;20434;-74
2021/11/04 01:24:19;;;;;;;2.13;1.00;;;;;;;;;;10596008;27;20067;-72
2021/11/04 01:29:22;;;;;;;1.40;0.90;;;;;;;;;;10597900;27;20035;-74
2021/11/04 01:34:25;;;;;;;2.15;0.85;;;;;;;;;;10603587;27;20035;-74
2021/11/04 01:39:29;;;;;;;1.30;0.82;;;;;;;;;;10584325;27;20047;-76
2021/11/04 01:44:32;;;;;;;1.40;0.80;;;;;;;;;;10601089;27;20374;-75
2021/11/04 01:49:36;;;;;;;0.60;0.60;;;;;;;;;;10604638;27;20043;-74
2021/11/04 01:54:40;;;;;;;0.75;0.60;;;;;;;;;;10589594;27;20075;-73
2021/11/04 01:59:45;;;;;;;0.93;0.35;;;;;;;;;;10607874;27;20058;-73
2021/11/04 02:04:50;;;;;;;0.63;0.40;;;;;;;;;;10603386;27;20183;-74
2021/11/04 02:10:02;;;;;;;0.80;0.75;;;;;;;;;;10598689;27;20051;-74
2021/11/04 02:15:16;;;;;;;1.08;0.40;;;;;;;;;;10582576;27;20371;-75
2021/11/04 02:20:27;;;;;;;0.52;0.50;;;;;;;;;;10579822;27;20099;-73
2021/11/04 02:25:32;;;;;;;5.38;0.65;;;;;;;;;;10589579;27;20053;-75
2021/11/04 02:30:55;;;;;;;0.60;0.50;;;;;;;;;;10590482;27;20061;-72
2021/11/04 02:36:18;;;;;;;0.25;0.22;;;;;;;;;;10600968;27;20039;-74
2021/11/04 02:41:43;;;;;;;1.40;0.80;;;;;;;;;;10599987;27;20043;-74
2021/11/04 02:46:46;;;;;;;0.32;0.32;;;;;;;;;;10589788;27;20561;-74
2021/11/04 02:51:49;;;;;;;0.50;0.30;;;;;;;;;;10598659;27;20162;-73
2021/11/04 02:56:55;;;;;;;0.20;0.20;;;;;;;;;;10604535;27;20140;-71
2021/11/04 03:01:59;;;;;;;0.28;0.28;;;;;;;;;;10599338;27;20104;-74
2021/11/04 03:07:02;;;;;;;0.90;0.20;;;;;;;;;;10582977;27;20050;-75
2021/11/04 03:12:07;;;;;;;0.10;0.00;;;;;;;;;;10600971;27;20035;-76
2021/11/04 03:17:10;;;;;;;0.38;0.20;;;;;;;;;;10603040;27;20327;-74
2021/11/04 03:22:13;;;;;;;0.20;0.20;;;;;;;;;;10596550;27;20507;-74
2021/11/04 03:27:17;;;;;;;0.20;0.10;;;;;;;;;;10597257;27;20439;-75
2021/11/04 03:32:21;;;;;;;0.32;0.30;;;;;;;;;;10595388;27;20516;-75
2021/11/04 03:37:27;;;;;;;0.10;0.10;;;;;;;;;;10602928;27;20106;-75
2021/11/04 03:42:32;;;;;;;0.50;0.30;;;;;;;;;;10599617;27;20039;-73
2021/11/04 03:47:36;;;;;;;1.33;0.20;;;;;;;;;;10593934;27;20462;-75
2021/11/04 03:52:38;;;;;;;;;;;;;;;;;;10595889;27;20042;-74
2021/11/04 03:57:44;;;;;;;0.20;0.20;;;;;;;;;;10595500;27;19984;-74
2021/11/04 04:02:47;;;;;;;2.05;0.20;;;;;;;;;;10592927;27;20436;-74
2021/11/04 04:07:50;;;;;;;2.65;0.40;;;;;;;;;;10599517;27;20069;-74
2021/11/04 04:12:55;;;;;;;0.52;0.20;;;;;;;;;;10607564;27;20464;-76
2021/11/04 04:18:17;;;;;;;0.17;0.17;;;;;;;;;;10603387;27;20062;-76
2021/11/04 04:23:20;;;;;;;0.63;0.60;;;;;;;;;;10608131;27;20051;-74
2021/11/04 04:28:25;;;;;;;0.17;0.17;;;;;;;;;;10603533;27;20071;-75
2021/11/04 04:33:27;;;;;;;;;;;;;;;;;;10582076;27;20211;-76
2021/11/04 04:38:30;;;;;;;0.50;0.50;;;;;;;;;;10602921;27;19994;-74
2021/11/04 04:43:34;;;;;;;0.70;0.50;;;;;;;;;;10606180;27;20050;-74
2021/11/04 04:48:57;;;;;;;0.98;0.63;;;;;;;;;;10601840;27;20046;-74
2021/11/04 04:54:00;;;;;;;1.92;0.60;;;;;;;;;;10604911;27;20108;-75
2021/11/04 04:59:04;;;;;;;1.10;1.00;;;;;;;;;;10607455;27;20031;-75
2021/11/04 05:04:07;;;;;;;;;;;;;;;;;;10609313;27;20027;-73
2021/11/04 05:09:10;;;;;;;0.30;0.30;;;;;;;;;;10604304;27;19958;-73
2021/11/04 05:14:14;;;;;;;1.45;0.38;;;;;;;;;;10604784;27;20130;-74
2021/11/04 05:19:17;;;;;;;;;;;;;;;;;;10602067;27;20075;-74
2021/11/04 05:24:20;;;;;;;0.60;0.60;;;;;;;;;;10605967;27;19985;-72
2021/11/04 05:29:25;;;;;;;0.50;0.50;;;;;;;;;;10598719;27;20045;-74
2021/11/04 05:34:29;;;;;;;0.65;0.65;;;;;;;;;;10597560;27;20027;-73
2021/11/04 05:39:32;;;;;;;1.08;0.52;;;;;;;;;;10591863;27;20122;-72
2021/11/04 05:44:37;;;;;;;0.22;0.20;;;;;;;;;;10598104;27;20031;-73
2021/11/04 05:49:40;;;;;;;0.65;0.30;;;;;;;;;;10605807;27;20039;-71
2021/11/04 05:54:43;;;;;;;0.38;0.35;;;;;;;;;;10579662;27;20046;-73
2021/11/04 05:59:47;;;;;;;0.30;0.20;;;;;;;;;;10599897;27;20042;-71
2021/11/04 06:04:50;;;;;;;0.45;0.35;;;;;;;;;;10605701;27;20104;-75
2021/11/04 06:09:53;;;;;;;1.50;0.50;;;;;;;;;;10576616;27;20040;-76
2021/11/04 06:14:57;;;;;;;0.27;0.27;;;;;;;;;;10606993;27;20081;-75
2021/11/04 06:20:00;;;;;;;0.27;0.27;;;;;;;;;;10600148;27;20580;-74
2021/11/04 06:25:04;;;;;;;0.73;0.47;;;;;;;;;;10602859;27;20114;-75
2021/11/04 06:30:09;;;;;;;0.85;0.77;;;;;;;;;;10593890;27;20122;-75
2021/11/04 06:35:13;;;;;;;0.80;0.53;;;;;;;;;;10575054;27;20375;-72
2021/11/04 06:40:15;;;;;;;0.65;0.50;;;;;;;;;;10579695;27;20093;-72
2021/11/04 06:45:20;;;;;;;0.93;0.63;;;;;;;;;;10596881;27;20059;-74
2021/11/04 06:50:25;;;;;;;0.40;0.23;;;;;;;;;;10603970;27;20043;-71
2021/11/04 06:55:29;;;;;;;0.57;0.45;;;;;;;;;;10600397;27;20043;-74
2021/11/04 07:00:37;;;;;;;0.68;0.65;;;;;;;;;;10596444;27;20047;-73
2021/11/04 07:05:40;;;;;;;0.82;0.73;;;;;;;;;;10605640;27;20038;-74
2021/11/04 07:10:43;;;;;;;1.25;0.90;;;;;;;;;;10592239;27;20591;-72
2021/11/04 07:15:47;;;;;;;0.60;0.60;;;;;;;;;;10581777;27;20142;-74
2021/11/04 07:20:53;;;;;;;1.27;0.70;;;;;;;;;;10598209;27;20054;-71
2021/11/04 07:26:01;;;;;;;0.60;0.60;;;;;;;;;;10603900;27;20071;-74
2021/11/04 07:31:05;;;;;;;1.20;0.80;;;;;;;;;;10600814;27;20065;-73
2021/11/04 07:36:10;;;;;;;1.52;1.00;;;;;;;;;;10603098;27;20179;-72
2021/11/04 07:41:13;;;;;;;1.58;0.77;;;;;;;;;;10594640;27;20062;-73
2021/11/04 07:46:17;;;;;;;1.20;0.90;;;;;;;;;;10585698;27;20205;-72
2021/11/04 07:51:20;;;;;;;0.50;0.43;;;;;;;;;;10590980;27;20035;-73
2021/11/04 07:56:23;;;;;;;1.42;0.77;;;;;;;;;;10608658;27;20035;-72
2021/11/04 08:01:27;;;;;;;0.47;0.43;;;;;;;;;;10610915;27;20463;-73
2021/11/04 08:06:30;;;;;;;2.33;0.50;;;;;;;;;;10599043;27;20067;-72
2021/11/04 08:11:33;;;;;;;0.90;0.55;;;;;;;;;;10585020;27;20096;-74
2021/11/04 08:16:37;;;;;;;0.90;0.60;;;;;;;;;;10599266;27;20035;-73
2021/11/04 08:21:40;;;;;;;0.30;0.20;;;;;;;;;;10602191;27;20081;-71
2021/11/04 08:26:43;;;;;;;0.75;0.40;;;;;;;;;;10605828;27;20046;-71
2021/11/04 08:31:47;;;;;;;0.38;0.30;;;;;;;;;;10600624;27;20123;-71
2021/11/04 08:36:50;;;;;;;1.17;0.40;;;;;;;;;;10578837;27;20062;-70
2021/11/04 08:41:53;;;;;;;0.30;0.15;;;;;;;;;;10591814;27;20087;-71
2021/11/04 08:46:57;;;;;;;1.10;0.45;;;;;;;;;;10603739;27;20042;-72
2021/11/04 08:52:00;;;;;;;0.25;0.20;;;;;;;;;;10603668;27;20133;-71
2021/11/04 08:57:03;;;;;;;0.75;0.30;;;;;;;;;;10607187;27;20027;-68
2021/11/04 09:02:08;;;;;;;0.30;0.30;;;;;;;;;;10597805;27;20035;-73
2021/11/04 09:07:11;;;;;;;0.75;0.32;;;;;;;;;;10600520;27;20042;-71
2021/11/04 09:12:14;;;;;;;0.30;0.30;;;;;;;;;;10604630;27;20548;-71
2021/11/04 09:17:19;;;;;;;0.47;0.20;;;;;;;;;;10608453;27;20074;-72
2021/11/04 09:22:21;;;;;;;0.70;0.40;;;;;;;;;;10604712;27;20400;-72
2021/11/04 09:27:24;;;;;;;0.55;0.50;;;;;;;;;;10612504;27;20095;-71
2021/11/04 09:32:48;;;;;;;0.40;0.40;;;;;;;;;;10595865;27;20141;-72
2021/11/04 09:37:51;;;;;;;1.25;0.35;;;;;;;;;;10600388;27;20039;-73
2021/11/04 09:42:54;;;;;;;0.95;0.40;;;;;;;;;;10608115;27;20058;-71
2021/11/04 09:47:59;;;;;;;1.75;0.47;;;;;;;;;;10600854;27;20129;-69
2021/11/04 09:53:02;;;;;;;0.65;0.50;;;;;;;;;;10602309;27;20523;-72
2021/11/04 09:58:05;;;;;;;0.40;0.40;;;;;;;;;;10606086;27;20027;-71
2021/11/04 10:03:10;;;;;;;0.95;0.70;;;;;;;;;;10616920;27;20039;-72
2021/11/04 10:08:15;;;;;;;0.88;0.50;;;;;;;;;;10606299;27;20524;-70
2021/11/04 10:13:18;;;;;;;1.05;0.70;;;;;;;;;;10614997;27;20047;-72
2021/11/04 10:18:23;;;;;;;0.50;0.50;;;;;;;;;;10592485;27;20055;-70
2021/11/04 10:23:26;;;;;;;0.63;0.40;;;;;;;;;;10600331;27;20119;-71
2021/11/04 10:28:30;;;;;;;1.60;0.90;;;;;;;;;;10604102;27;20043;-70
2021/11/04 10:33:35;;;;;;;0.40;0.40;;;;;;;;;;10600047;27;20471;-73
2021/11/04 10:38:39;;;;;;;1.70;1.20;;;;;;;;;;10599100;27;20447;-70
2021/11/04 10:43:41;;;;;;;1.17;1.05;;;;;;;;;;10572558;27;20483;-70
2021/11/04 10:48:46;;;;;;;1.48;0.93;;;;;;;;;;10588801;27;20039;-70
2021/11/04 10:54:00;;;;;;;2.17;0.95;;;;;;;;;;10575875;27;20031;-71
2021/11/04 10:59:06;;;;;;;1.38;0.73;;;;;;;;;;10590825;27;20039;-71
2021/11/04 11:04:11;;;;;;;1.92;1.00;;;;;;;;;;10593422;27;20039;-71
2021/11/04 11:09:16;;;;;;;1.42;0.80;;;;;;;;;;10591076;27;20617;-72
2021/11/04 11:14:20;;;;;;;1.23;0.82;;;;;;;;;;10586824;27;20105;-68
2021/11/04 11:19:25;;;;;;;1.50;0.90;;;;;;;;;;10596073;27;20046;-71
2021/11/04 11:24:30;;;;;;;1.35;1.08;;;;;;;;;;10606938;27;20506;-69
2021/11/04 11:29:33;;;;;;;1.13;0.93;;;;;;;;;;10607917;27;20063;-74
2021/11/04 11:34:39;;;;;;;1.10;0.80;;;;;;;;;;10595021;27;20074;-70
2021/11/04 11:39:43;;;;;;;2.80;1.05;;;;;;;;;;10608701;27;20035;-69
2021/11/04 11:44:51;;;;;;;2.15;1.17;;;;;;;;;;10606276;27;20090;-72
2021/11/04 11:50:08;;;;;;;0.90;0.85;;;;;;;;;;10610417;27;20142;-71
2021/11/04 11:55:14;;;;;;;1.35;0.70;;;;;;;;;;10608770;27;20043;-71
2021/11/04 12:00:17;;;;;;;1.00;0.85;;;;;;;;;;10612974;27;20412;-72
2021/11/04 12:05:39;;;;;;;1.65;1.08;;;;;;;;;;10611122;27;20463;-72
2021/11/04 12:10:44;;;;;;;1.17;1.10;;;;;;;;;;10599449;27;20050;-69
2021/11/04 12:16:05;;;;;;;1.10;0.98;;;;;;;;;;10596596;27;20148;-72
2021/11/04 12:21:09;;;;;;;1.80;0.98;;;;;;;;;;10608747;27;20369;-69
2021/11/04 12:26:34;;;;;;;6.40;0.80;;;;;;;;;;10604759;27;20047;-71
2021/11/04 12:31:39;;;;;;;2.40;1.20;;;;;;;;;;10601965;27;20043;-71
2021/11/04 12:36:43;;;;;;;0.93;0.63;;;;;;;;;;10581508;27;20036;-71
2021/11/04 12:41:51;;;;;;;1.95;1.02;;;;;;;;;;10618142;27;20137;-74
2021/11/04 12:46:54;;;;;;;;;;;;;;;;;;10597718;27;20047;-71
2021/11/04 12:51:59;;;;;;;2.78;1.40;;;;;;;;;;10601784;27;20002;-70
2021/11/04 12:57:04;;;;;;;2.40;1.33;;;;;;;;;;10606929;27;20050;-71
2021/11/04 13:02:08;;;;;;;1.05;0.70;;;;;;;;;;10582235;27;20035;-72
2021/11/04 13:07:13;;;;;;;1.50;1.30;;;;;;;;;;10599372;27;20095;-72
2021/11/04 13:12:17;;;;;;;0.65;0.35;;;;;;;;;;10597382;27;20460;-71
2021/11/04 13:17:20;;;;;;;1.23;1.02;;;;;;;;;;10609029;27;20083;-70
2021/11/04 13:22:24;;;;;;;1.70;1.10;;;;;;;;;;10614333;27;20054;-69
2021/11/04 13:27:27;;;;;;;2.33;1.40;;;;;;;;;;10586696;27;20091;-71
2021/11/04 13:32:31;;;;;;;2.10;1.40;;;;;;;;;;10581300;27;20070;-71
2021/11/04 13:37:35;;;;;;;1.47;1.13;;;;;;;;;;10603667;27;20045;-72
2021/11/04 13:42:38;;;;;;;;;;;;;;;;;;10592267;27;20350;-71
2021/11/04 13:47:42;;;;;;;2.28;1.70;;;;;;;;;;10601761;27;19924;-71
2021/11/04 13:52:47;;;;;;;3.00;1.45;;;;;;;;;;10592391;27;20101;-71
2021/11/04 13:57:51;;;;;;;1.23;0.75;;;;;;;;;;10611208;27;20141;-72
2021/11/04 14:02:57;;;;;;;1.60;1.02;;;;;;;;;;10596799;27;20043;-72
2021/11/04 14:08:08;;;;;;;1.45;0.85;;;;;;;;;;10600801;27;20066;-71
2021/11/04 14:13:11;;;;;;;3.40;1.50;;;;;;;;;;10597934;27;20043;-70
2021/11/04 14:18:33;;;;;;;3.70;1.95;;;;;;;;;;10599773;27;20035;-68
2021/11/04 14:23:59;;;;;;;2.80;1.52;;;;;;;;;;10592489;27;20057;-72
2021/11/04 14:29:02;;;;;;;1.73;1.08;;;;;;;;;;10597827;27;20050;-70
2021/11/04 14:34:05;;;;;;;1.73;1.40;;;;;;;;;;10595345;27;20421;-71
2021/11/04 14:39:10;;;;;;;1.60;0.90;;;;;;;;;;10575834;27;20172;-68
2021/11/04 14:44:13;;;;;;;3.55;1.02;;;;;;;;;;10598614;27;20418;-71
2021/11/04 14:49:16;;;;;;;2.23;1.20;;;;;;;;;;10599961;27;20035;-71
2021/11/04 14:54:21;;;;;;;2.85;1.60;;;;;;;;;;10599298;27;20492;-69
2021/11/04 14:59:25;;;;;;;0.98;0.73;;;;;;;;;;10600624;27;20035;-71
2021/11/04 15:04:28;;;;;;;2.38;1.40;;;;;;;;;;10596780;27;20046;-72
2021/11/04 15:09:32;;;;;;;2.05;1.13;;;;;;;;;;10599735;27;20480;-68
2021/11/04 15:14:35;;;;;;;3.72;2.03;;;;;;;;;;10597041;27;20680;-71
2021/11/04 15:19:50;;;;;;;2.53;1.30;;;;;;;;;;10601314;27;20043;-73
2021/11/04 15:24:58;;;;;;;4.27;2.03;;;;;;;;;;10584705;27;20044;-72
2021/11/04 15:30:01;;;;;;;1.88;1.25;;;;;;;;;;10604801;27;20560;-70
2021/11/04 15:35:04;;;;;;;2.22;1.27;;;;;;;;;;10593605;27;20398;-73
2021/11/04 15:40:09;;;;;;;2.55;1.48;;;;;;;;;;10599355;27;20039;-72
2021/11/04 15:45:12;;;;;;;2.88;1.30;;;;;;;;;;10591884;27;20040;-74
2021/11/04 15:50:15;;;;;;;4.17;1.70;;;;;;;;;;10598733;27;20039;-71
2021/11/04 15:55:20;;;;;;;2.05;0.98;;;;;;;;;;10591688;27;20096;-74
2021/11/04 16:00:23;;;;;;;4.68;2.47;;;;;;;;;;10594721;27;20136;-71
2021/11/04 16:05:25;;;;;;;1.23;0.73;;;;;;;;;;10590980;27;20039;-71
2021/11/04 16:10:30;;;;;;;3.42;2.03;;;;;;;;;;10602021;27;20039;-71
2021/11/04 16:15:32;;;;;;;3.43;1.70;;;;;;;;;;10602108;27;20448;-71
2021/11/04 16:20:37;;;;;;;3.20;1.53;;;;;;;;;;10576504;27;20146;-72
2021/11/04 16:25:46;;;;;;;4.00;2.07;;;;;;;;;;10577680;27;20041;-71
2021/11/04 16:30:48;;;;;;;5.47;2.72;;;;;;;;;;10600157;27;20031;-71
2021/11/04 16:35:51;;;;;;;5.90;2.70;;;;;;;;;;10596826;27;20049;-71
2021/11/04 16:40:55;;;;;;;3.63;2.27;;;;;;;;;;10607115;27;20050;-70
2021/11/04 16:45:58;;;;;;;;;;;;;;;;;;10603138;27;20356;-70
2021/11/04 16:51:01;;;;;;;6.50;2.50;;;;;;;;;;10614020;27;20049;-71
2021/11/04 17:01:36;;;;;;;7.13;3.67;;;;;;;;;;10504080;27;20916;-71
2021/11/04 17:06:39;;;;;;;3.80;2.08;;;;;;;;;;10474115;28;20417;-70
2021/11/04 17:11:44;;;;;;;2.93;1.87;;;;;;;;;;10466817;28;20056;-70
2021/11/04 17:16:48;;;;;;;8.87;2.77;;;;;;;;;;10463206;28;20536;-70
2021/11/04 17:21:50;;;;;;;;;;;;;;;;;;10463205;28;20041;-71
2021/11/04 17:26:53;;;;;;;4.00;2.23;;;;;;;;;;10462184;28;19920;-71
2021/11/04 17:31:58;;;;;;;3.70;2.07;;;;;;;;;;10467173;28;20036;-70
2021/11/04 17:37:01;;;;;;;3.73;2.00;;;;;;;;;;10474515;28;20049;-71
2021/11/04 17:42:04;;;;;;;3.10;1.20;;;;;;;;;;10458613;28;20040;-70
2021/11/04 17:47:09;;;;;;;6.07;2.57;;;;;;;;;;10458502;28;20381;-73
2021/11/04 17:52:12;;;;;;;4.97;2.27;;;;;;;;;;10463658;28;20049;-73
2021/11/04 17:57:16;;;;;;;2.80;1.50;;;;;;;;;;10464205;28;20036;-72
2021/11/04 18:02:20;;;;;;;2.60;1.37;;;;;;;;;;10454747;28;20052;-72
2021/11/04 18:07:23;;;;;;;5.57;2.27;;;;;;;;;;10459283;28;20037;-74
2021/11/04 18:12:27;;;;;;;5.23;2.13;;;;;;;;;;10440175;28;20105;-72
2021/11/04 18:17:31;;;;;;;3.15;1.98;;;;;;;;;;10436042;28;20558;-73
2021/11/04 18:22:34;;;;;;;4.80;1.77;;;;;;;;;;10439417;28;20082;-74
2021/11/04 18:27:37;;;;;;;5.23;2.40;;;;;;;;;;10437220;28;20386;-75
2021/11/04 18:32:41;;;;;;;7.07;3.30;;;;;;;;;;10436229;28;20041;-73
2021/11/04 18:37:44;;;;;;;;;;;;;;;;;;10437453;28;20037;-72
2021/11/04 18:42:47;;;;;;;5.00;2.20;;;;;;;;;;10441521;28;19978;-71
2021/11/04 18:47:51;;;;;;;7.63;2.50;;;;;;;;;;10428081;28;20072;-74
2021/11/04 18:52:54;;;;;;;4.17;2.13;;;;;;;;;;10439985;28;20049;-74
2021/11/04 18:57:57;;;;;;;3.70;2.07;;;;;;;;;;10431400;28;20453;-73
2021/11/04 19:03:04;;;;;;;5.03;2.17;;;;;;;;;;10437960;28;20178;-74
2021/11/04 19:08:18;;;;;;;3.73;2.27;;;;;;;;;;10438049;28;20037;-72
2021/11/04 19:13:41;;;;;;;6.53;2.30;;;;;;;;;;10442171;28;20055;-71
2021/11/04 19:19:06;;;;;;;3.27;1.30;;;;;;;;;;10440655;28;20086;-73
2021/11/04 19:24:09;;;;;;;4.50;2.03;;;;;;;;;;10437381;28;20743;-73
2021/11/04 19:29:12;;;;;;;8.10;3.07;;;;;;;;;;10438098;28;20033;-72
2021/11/04 19:34:18;;;;;;;7.33;3.40;;;;;;;;;;10433083;28;20257;-72
2021/11/04 19:39:21;;;;;;;9.97;4.17;;;;;;;;;;10438694;28;20041;-72
2021/11/04 19:44:24;;;;;;;9.80;3.70;;;;;;;;;;10435288;28;20079;-70
2021/11/04 19:49:28;;;;;;;4.70;2.10;;;;;;;;;;10436680;28;20322;-73
2021/11/04 19:54:32;;;;;;;5.80;2.23;;;;;;;;;;10438371;28;20128;-74
2021/11/04 19:59:36;;;;;;;6.67;2.90;;;;;;;;;;10433924;28;20052;-73
2021/11/04 20:04:40;;;;;;;4.88;2.70;;;;;;;;;;10435565;28;20210;-73
2021/11/04 20:09:43;;;;;;;;;;;;;;;;;;10432315;28;20098;-71
2021/11/04 20:14:46;;;;;;;4.80;2.37;;;;;;;;;;10436642;28;19970;-71
2021/11/04 20:19:50;;;;;;;4.50;2.37;;;;;;;;;;10439603;28;20626;-72
2021/11/04 20:24:53;;;;;;;3.60;1.80;;;;;;;;;;10434827;28;20155;-70
2021/11/04 20:29:56;;;;;;;4.77;2.80;;;;;;;;;;10433161;28;20106;-71
2021/11/04 20:35:00;;;;;;;4.53;2.27;;;;;;;;;;10433862;28;20099;-71
2021/11/04 20:40:03;;;;;;;;;;;;;;;;;;10432146;28;20447;-71
2021/11/04 20:45:06;;;;;;;2.97;2.10;;;;;;;;;;10436972;28;19968;-71
2021/11/04 20:50:12;;;;;;;3.08;2.00;;;;;;;;;;10433043;28;20075;-72
2021/11/04 20:55:20;;;;;;;7.27;2.90;;;;;;;;;;10438590;28;20044;-71
2021/11/04 21:00:23;;;;;;;3.47;2.00;;;;;;;;;;10434042;28;20037;-72
2021/11/04 21:05:27;;;;;;;3.03;1.90;;;;;;;;;;10428866;28;20481;-72
2021/11/04 21:10:30;;;;;;;4.03;1.83;;;;;;;;;;10427968;28;20450;-70
2021/11/04 21:15:33;;;;;;;3.20;1.40;;;;;;;;;;10431393;28;20056;-72
2021/11/04 21:20:38;;;;;;;3.90;2.23;;;;;;;;;;10429831;28;20121;-71
2021/11/04 21:25:44;;;;;;;3.90;1.53;;;;;;;;;;10435430;28;20069;-70
2021/11/04 21:30:46;;;;;;;12.07;3.67;;;;;;;;;;10426020;28;20151;-73
2021/11/04 21:35:51;;;;;;;4.33;2.27;;;;;;;;;;10430985;28;20408;-71
2021/11/04 21:40:54;;;;;;;5.03;2.37;;;;;;;;;;10434844;28;20047;-71
2021/11/04 21:45:57;;;;;;;6.97;3.20;;;;;;;;;;10435874;28;20065;-71
2021/11/04 21:51:02;;;;;;;7.10;3.33;;;;;;;;;;10442553;28;20041;-70
2021/11/04 21:56:05;;;;;;;4.57;1.67;;;;;;;;;;10437507;28;20057;-70
2021/11/04 22:01:10;;;;;;;6.40;3.25;;;;;;;;;;10437132;28;20115;-71
2021/11/04 22:06:14;;;;;;;2.78;1.58;;;;;;;;;;10439739;28;20049;-72
2021/11/04 22:11:17;;;;;;;4.87;2.10;;;;;;;;;;10438857;28;20103;-70
2021/11/04 22:16:20;;;;;;;2.27;1.10;;;;;;;;;;10437137;28;20076;-71
2021/11/04 22:21:24;;;;;;;3.20;1.47;;;;;;;;;;10438726;28;20079;-71
2021/11/04 22:26:28;;;;;;;4.33;2.50;;;;;;;;;;10434093;28;20102;-72
2021/11/04 22:31:35;;;;;;;5.55;2.75;;;;;;;;;;10439741;28;20037;-72
2021/11/04 22:36:40;;;;;;;3.10;1.57;;;;;;;;;;10436631;28;20052;-72
2021/11/04 22:41:42;;;;;;;2.30;1.53;;;;;;;;;;10430711;28;20045;-72
2021/11/04 22:46:45;;;;;;;4.20;2.13;;;;;;;;;;10442608;28;20132;-72
2021/11/04 22:51:49;;;;;;;3.90;2.47;;;;;;;;;;10437110;28;20037;-72
2021/11/04 22:56:52;;;;;;;3.70;2.07;;;;;;;;;;10435571;28;20108;-71
2021/11/04 23:01:56;;;;;;;3.30;2.03;;;;;;;;;;10428142;28;20049;-72
2021/11/04 23:07:00;;;;;;;4.90;1.73;;;;;;;;;;10431542;28;20370;-72
2021/11/04 23:12:03;;;;;;;3.97;1.37;;;;;;;;;;10427761;28;20063;-72
2021/11/04 23:17:07;;;;;;;5.88;2.67;;;;;;;;;;10431578;28;20099;-70
2021/11/04 23:22:11;;;;;;;3.13;1.37;;;;;;;;;;10422908;28;20506;-72
2021/11/04 23:27:14;;;;;;;5.70;2.40;;;;;;;;;;10431831;28;20063;-73
2021/11/04 23:32:17;;;;;;;3.83;1.77;;;;;;;;;;10428175;28;20030;-70
2021/11/04 23:37:26;;;;;;;2.50;1.30;;;;;;;;;;10421619;28;20067;-72
2021/11/04 23:42:29;;;;;;;4.40;1.73;;;;;;;;;;10434620;28;20079;-71
2021/11/04 23:47:32;;;;;;;3.60;1.37;;;;;;;;;;10438572;28;20048;-70
2021/11/04 23:52:36;;;;;;;4.63;1.93;;;;;;;;;;10434733;28;20041;-72
2021/11/04 23:57:40;;;;;;;;;;;;;;;;;;10427128;28;20444;-72
